createdAt,value
2023-03-08T00:00:55.369Z,68.98
2023-03-08T00:05:55.280Z,69.43
2023-03-08T00:10:55.237Z,69.95
2023-03-08T00:15:55.220Z,70.26
2023-03-08T00:20:55.118Z,70.91
2023-03-08T00:25:55.110Z,71.33
2023-03-08T00:30:54.988Z,71.88
2023-03-08T00:35:54.969Z,72.08
2023-03-08T00:40:54.964Z,72.19
2023-03-08T00:45:54.879Z,72.29
2023-03-08T00:50:54.774Z,72.53
2023-03-08T00:55:54.745Z,72.84
2023-03-08T01:00:54.792Z,73.15
2023-03-08T01:05:54.639Z,73.25
2023-03-08T01:10:54.590Z,73.80
2023-03-08T01:15:54.527Z,74.01
2023-03-08T01:20:54.481Z,74.22
2023-03-08T01:25:54.394Z,74.67
2023-03-08T01:30:54.358Z,74.77
2023-03-08T01:35:54.330Z,74.98
2023-03-08T01:40:54.234Z,74.77
2023-03-08T01:45:54.522Z,75.05
2023-03-08T01:50:54.117Z,74.95
2023-03-08T01:55:54.024Z,74.95
2023-03-08T02:00:54.017Z,75.05
2023-03-08T02:05:53.943Z,74.74
2023-03-08T02:10:53.958Z,74.19
2023-03-08T02:15:53.831Z,74.19
2023-03-08T02:20:53.759Z,73.77
2023-03-08T02:25:53.706Z,73.25
2023-03-08T02:30:53.689Z,72.81
2023-03-08T02:35:53.618Z,72.39
2023-03-08T02:40:53.543Z,72.08
2023-03-08T02:45:53.482Z,72.08
2023-03-08T02:50:53.757Z,71.84
2023-03-08T02:55:53.399Z,71.63
2023-03-08T03:00:53.301Z,71.43
2023-03-08T03:05:53.270Z,71.63
2023-03-08T03:10:53.261Z,71.53
2023-03-08T03:15:53.176Z,71.43
2023-03-08T03:20:53.099Z,71.22
2023-03-08T03:25:53.038Z,71.53
2023-03-08T03:30:53.039Z,71.84
2023-03-08T03:35:52.992Z,72.15
2023-03-08T03:40:52.950Z,72.50
2023-03-08T03:45:52.814Z,72.50
2023-03-08T03:50:52.758Z,72.91
2023-03-08T03:55:52.707Z,72.91
2023-03-08T04:00:52.773Z,72.91
2023-03-08T04:05:52.627Z,73.15
2023-03-08T04:10:52.643Z,73.15
2023-03-08T04:15:52.935Z,73.46
2023-03-08T04:20:52.571Z,73.36
2023-03-08T04:25:52.369Z,73.57
2023-03-08T04:30:52.320Z,73.46
2023-03-08T04:35:52.730Z,73.80
2023-03-08T04:40:52.316Z,73.91
2023-03-08T04:45:52.210Z,74.01
2023-03-08T04:50:52.141Z,74.32
2023-03-08T04:55:52.064Z,74.53
2023-03-08T05:00:51.995Z,74.57
2023-03-08T05:05:51.945Z,74.98
2023-03-08T05:10:51.894Z,75.40
2023-03-08T05:15:51.962Z,76.16
2023-03-08T05:20:51.741Z,76.61
2023-03-08T05:25:51.713Z,77.02
2023-03-08T05:30:51.658Z,76.81
2023-03-08T05:35:51.629Z,76.81
2023-03-08T05:40:51.516Z,76.71
2023-03-08T05:45:51.539Z,76.71
2023-03-08T05:50:51.404Z,76.81
2023-03-08T05:55:51.354Z,76.61
2023-03-08T06:00:51.295Z,76.71
2023-03-08T06:05:51.203Z,76.61
2023-03-08T06:10:51.157Z,76.37
2023-03-08T06:15:51.111Z,76.37
2023-03-08T06:20:51.061Z,76.57
2023-03-08T06:25:51.007Z,76.57
2023-03-08T06:30:50.956Z,76.37
2023-03-08T06:35:51.003Z,76.26
2023-03-08T06:40:50.781Z,76.16
2023-03-08T06:45:50.796Z,75.71
2023-03-08T06:50:50.691Z,75.50
2023-03-08T06:55:50.646Z,75.46
2023-03-08T07:00:50.560Z,75.15
2023-03-08T07:05:50.541Z,75.26
2023-03-08T07:10:50.453Z,75.26
2023-03-08T07:15:50.459Z,75.32
2023-03-08T07:20:50.320Z,74.60
2023-03-08T07:25:50.307Z,75.02
2023-03-08T07:30:50.208Z,75.22
2023-03-08T07:35:50.244Z,75.22
2023-03-08T07:40:50.136Z,75.12
2023-03-08T07:45:50.085Z,75.63
2023-03-08T07:50:50.009Z,75.53
2023-03-08T07:55:49.968Z,75.63
2023-03-08T08:00:49.874Z,75.40
2023-03-08T08:05:49.843Z,75.29
2023-03-08T08:10:49.771Z,74.88
2023-03-08T08:15:49.799Z,75.26
2023-03-08T08:20:49.703Z,75.05
2023-03-08T08:25:50.578Z,75.12
2023-03-08T08:30:49.562Z,74.81
2023-03-08T08:35:49.522Z,74.88
2023-03-08T08:40:49.490Z,73.74
2023-03-08T08:45:49.502Z,74.15
2023-03-08T08:50:49.384Z,73.94
2023-03-08T08:55:49.273Z,74.22
2023-03-08T09:00:49.230Z,74.33
2023-03-08T09:05:49.156Z,74.43
2023-03-08T09:10:49.206Z,74.63
2023-03-08T09:15:49.075Z,74.74
2023-03-08T09:20:49.065Z,74.40
2023-03-08T09:25:48.971Z,74.77
2023-03-08T09:30:48.834Z,74.71
2023-03-08T09:35:49.754Z,75.43
2023-03-08T09:40:48.748Z,78.36
2023-03-08T09:45:48.771Z,81.05
2023-03-08T09:50:48.754Z,82.43
2023-03-08T09:55:48.738Z,83.77
2023-03-08T10:00:48.537Z,85.47
2023-03-08T10:05:48.395Z,87.85
2023-03-08T10:10:48.387Z,90.37
2023-03-08T10:15:48.248Z,91.57
2023-03-08T10:20:48.216Z,91.99
2023-03-08T10:25:48.131Z,92.71
2023-03-08T10:30:48.149Z,94.41
2023-03-08T10:35:48.037Z,95.54
2023-03-08T10:40:48.024Z,96.79
2023-03-08T10:45:47.931Z,96.54
2023-03-08T10:50:47.845Z,97.62
2023-03-08T10:55:47.826Z,98.08
2023-03-08T11:00:47.725Z,98.80
2023-03-08T11:05:47.661Z,99.05
2023-03-08T11:10:47.597Z,99.99
2023-03-08T11:15:47.610Z,99.99
2023-03-08T11:20:47.486Z,99.99
2023-03-08T11:25:47.419Z,99.99
2023-03-08T11:30:47.402Z,99.99
2023-03-08T11:35:47.369Z,99.99
2023-03-08T11:40:47.322Z,99.99
2023-03-08T11:45:47.250Z,99.99
2023-03-08T11:50:47.173Z,99.99
2023-03-08T11:55:47.082Z,99.99
2023-03-08T12:00:47.061Z,99.99
2023-03-08T12:05:47.086Z,99.99
2023-03-08T12:10:46.918Z,99.99
2023-03-08T12:15:46.889Z,99.99
2023-03-08T12:20:46.846Z,99.99
2023-03-08T12:25:46.771Z,99.99
2023-03-08T12:30:46.726Z,99.99
2023-03-08T12:35:46.789Z,99.99
2023-03-08T12:40:46.668Z,99.99
2023-03-08T12:45:46.559Z,99.99
2023-03-08T12:50:46.626Z,99.99
2023-03-08T12:55:46.448Z,99.99
2023-03-08T13:00:46.462Z,99.99
2023-03-08T13:05:46.361Z,99.99
2023-03-08T13:10:46.315Z,99.99
2023-03-08T13:15:46.235Z,99.99
2023-03-08T13:20:46.209Z,99.99
2023-03-08T13:25:46.216Z,99.99
2023-03-08T13:30:46.101Z,99.99
2023-03-08T13:35:46.067Z,99.99
2023-03-08T13:40:45.968Z,99.99
2023-03-08T13:45:45.927Z,99.99
2023-03-08T13:50:45.876Z,99.99
2023-03-08T13:55:45.767Z,99.99
2023-03-08T14:00:45.757Z,99.99
2023-03-08T14:05:45.738Z,99.99
2023-03-08T14:10:45.733Z,99.99
2023-03-08T14:15:45.756Z,99.99
2023-03-08T14:20:45.528Z,99.99
2023-03-08T14:25:45.443Z,99.99
2023-03-08T14:30:45.593Z,99.99
2023-03-08T14:35:45.346Z,99.99
2023-03-08T14:40:45.277Z,99.99
2023-03-08T14:45:45.239Z,99.99
2023-03-08T14:50:45.129Z,99.99
2023-03-08T14:55:45.087Z,99.99
2023-03-08T15:00:44.997Z,99.99
2023-03-08T15:05:44.927Z,99.99
2023-03-08T15:10:44.882Z,99.99
2023-03-08T15:15:44.798Z,99.99
2023-03-08T15:20:44.788Z,99.17
2023-03-08T15:25:44.679Z,98.55
2023-03-08T15:30:44.612Z,97.78
2023-03-08T15:35:44.617Z,96.96
2023-03-08T15:40:44.489Z,97.17
2023-03-08T15:45:44.434Z,96.86
2023-03-08T15:50:44.363Z,96.96
2023-03-08T15:55:44.289Z,97.43
2023-03-08T16:00:44.230Z,98.67
2023-03-08T16:05:44.149Z,98.67
2023-03-08T16:10:44.096Z,98.57
2023-03-08T16:15:44.042Z,98.88
2023-03-08T16:20:43.940Z,98.88
2023-03-08T16:25:43.894Z,98.77
2023-03-08T16:30:43.817Z,98.97
2023-03-08T16:35:43.773Z,98.67
2023-03-08T16:40:43.720Z,98.25
2023-03-08T16:45:43.628Z,98.42
2023-03-08T16:50:43.540Z,98.11
2023-03-08T16:55:43.462Z,98.16
2023-03-08T17:00:43.369Z,99.46
2023-03-08T17:05:43.357Z,99.99
2023-03-08T17:10:43.279Z,99.99
2023-03-08T17:15:43.208Z,99.99
2023-03-08T17:20:43.141Z,99.99
2023-03-08T17:25:43.067Z,99.99
2023-03-08T17:30:42.998Z,99.99
2023-03-08T17:35:43.008Z,99.99
2023-03-08T17:40:42.895Z,99.99
2023-03-08T17:45:42.813Z,99.99
2023-03-08T17:50:42.910Z,99.99
2023-03-08T17:55:42.686Z,99.99
2023-03-08T18:00:42.637Z,99.99
2023-03-08T18:05:42.573Z,99.99
2023-03-08T18:10:42.516Z,99.99
2023-03-08T18:15:42.448Z,99.99
2023-03-08T18:20:42.347Z,99.99
2023-03-08T18:25:42.302Z,99.99
2023-03-08T18:30:42.208Z,99.99
2023-03-08T18:35:42.205Z,99.99
2023-03-08T18:40:42.084Z,99.99
2023-03-08T18:45:42.033Z,99.99
2023-03-08T18:50:41.980Z,99.99
2023-03-08T18:55:41.877Z,99.99
2023-03-08T19:00:41.875Z,99.99
2023-03-08T19:05:41.751Z,99.99
2023-03-08T19:10:41.692Z,99.99
2023-03-08T19:15:41.616Z,99.99
2023-03-08T19:20:41.563Z,99.99
2023-03-08T19:25:41.497Z,99.99
2023-03-08T19:30:41.438Z,99.99
2023-03-08T19:35:41.387Z,99.99
2023-03-08T19:40:41.356Z,99.99
2023-03-08T19:45:41.247Z,99.99
2023-03-08T19:50:41.202Z,99.99
2023-03-08T19:55:41.141Z,99.99
2023-03-08T20:00:41.086Z,99.99
2023-03-08T20:05:41.092Z,99.99
2023-03-08T20:10:40.930Z,99.99
2023-03-08T20:15:40.888Z,99.99
2023-03-08T20:20:40.815Z,99.99
2023-03-08T20:25:40.746Z,99.99
2023-03-08T20:30:40.704Z,99.99
2023-03-08T20:35:40.655Z,99.99
2023-03-08T20:40:40.596Z,99.99
2023-03-08T20:45:40.533Z,99.99
2023-03-08T20:50:40.416Z,99.99
2023-03-08T20:55:40.384Z,99.99
2023-03-08T21:00:41.480Z,99.99
2023-03-08T21:05:40.260Z,99.99
2023-03-08T21:10:40.170Z,99.99
2023-03-08T21:15:40.135Z,99.99
2023-03-08T21:20:40.068Z,99.86
2023-03-08T21:25:39.971Z,99.55
2023-03-08T21:30:39.924Z,99.99
2023-03-08T21:35:39.893Z,99.86
2023-03-08T21:40:39.793Z,99.96
2023-03-08T21:45:39.710Z,99.76
2023-03-08T21:50:39.661Z,99.66
2023-03-08T21:55:39.606Z,99.99
2023-03-08T22:00:39.551Z,99.99
2023-03-08T22:05:39.482Z,99.99
2023-03-08T22:10:39.415Z,99.99
2023-03-08T22:15:39.350Z,99.99
2023-03-08T22:20:39.305Z,99.99
2023-03-08T22:25:39.196Z,99.99
2023-03-08T22:30:39.136Z,99.99
2023-03-08T22:35:39.116Z,99.99
2023-03-08T22:40:39.024Z,99.99
2023-03-08T22:45:38.991Z,99.99
2023-03-08T22:50:38.906Z,99.99
2023-03-08T22:55:38.829Z,99.99
2023-03-08T23:00:38.785Z,99.99
2023-03-08T23:05:38.693Z,99.99
2023-03-08T23:10:38.637Z,99.99
2023-03-08T23:15:39.403Z,99.99
2023-03-08T23:20:38.509Z,99.99
2023-03-08T23:25:38.451Z,99.99
2023-03-08T23:30:38.386Z,99.99
2023-03-08T23:35:38.348Z,99.99
2023-03-08T23:40:38.253Z,99.99
2023-03-08T23:45:38.216Z,99.99
2023-03-08T23:50:38.160Z,99.99
2023-03-08T23:55:38.078Z,99.99
